Time;durP1;ratioP1;P1;durP2;ratioP2;P2;SDS_P1;SDS_P2;PMS_P1;PMS_P2;Temp;Humidity;BMP_temperature;BMP_pressure;BME280_temperature;BME280_humidity;BME280_pressure;Samples;Min_cycle;Max_cycle;Signal;HPM_P1;HPM_P2
2022/10/31 00:01:52;;;;;;;;;;;9.60;99.90;;;;;;4951518;29;19922;-84
2022/10/31 00:04:18;;;;;;;;;;;9.70;99.90;;;;;;4952236;29;19917;-85
2022/10/31 00:06:43;;;;;;;;;;;9.60;99.90;;;;;;4952289;28;20330;-85
2022/10/31 00:09:09;;;;;;;;;;;9.60;99.90;;;;;;4951974;29;19910;-85
2022/10/31 00:11:34;;;;;;;;;;;9.60;99.90;;;;;;4952430;29;19914;-85
2022/10/31 00:14:00;;;;;;;;;;;9.60;99.90;;;;;;4951123;29;20030;-85
2022/10/31 00:16:26;;;;;;;;;;;9.60;99.90;;;;;;4951572;28;19910;-84
2022/10/31 00:18:52;;;;;;;;;;;9.50;99.90;;;;;;4950671;29;19914;-84
2022/10/31 00:21:18;;;;;;;;;;;9.60;99.90;;;;;;4949933;28;20097;-84
2022/10/31 00:23:43;;;;;;;;;;;9.50;99.90;;;;;;4952494;29;20001;-85
2022/10/31 00:26:09;;;;;;;;;;;9.50;99.90;;;;;;4952755;29;19954;-84
2022/10/31 00:28:34;;;;;;;;;;;9.50;99.90;;;;;;4952651;28;19974;-84
2022/10/31 00:31:02;;;;;;;;;;;9.50;99.90;;;;;;4951796;29;19933;-84
2022/10/31 00:33:28;;;;;;;;;;;9.50;99.90;;;;;;4952215;28;19953;-84
2022/10/31 00:35:54;;;;;;;;;;;9.50;99.90;;;;;;4951686;28;19973;-83
2022/10/31 00:38:19;;;;;;;;;;;9.40;99.90;;;;;;4952297;28;20354;-84
2022/10/31 00:40:45;;;;;;;;;;;9.40;99.90;;;;;;4952317;29;20016;-84
2022/10/31 00:43:10;;;;;;;;;;;9.40;99.90;;;;;;4951436;29;19914;-84
2022/10/31 00:45:35;;;;;;;;;;;9.40;99.90;;;;;;4951585;29;19910;-84
2022/10/31 00:48:01;;;;;;;;;;;9.30;99.90;;;;;;4950316;29;20426;-84
2022/10/31 00:50:26;;;;;;;;;;;9.30;99.90;;;;;;4951524;29;19956;-84
2022/10/31 00:52:52;;;;;;;;;;;9.30;99.90;;;;;;4952145;28;20461;-84
2022/10/31 00:55:17;;;;;;;;;;;9.30;99.90;;;;;;4951638;29;20377;-80
2022/10/31 00:57:42;;;;;;;;;;;9.20;99.90;;;;;;4951481;29;19925;-84
2022/10/31 01:00:08;;;;;;;;;;;9.30;99.90;;;;;;4950033;29;19977;-84
2022/10/31 01:02:33;;;;;;;;;;;9.30;99.90;;;;;;4949362;29;19953;-84
2022/10/31 01:04:59;;;;;;;;;;;9.30;99.90;;;;;;4950777;29;19916;-84
2022/10/31 01:07:24;;;;;;;;;;;9.30;99.90;;;;;;4945111;28;19911;-85
2022/10/31 01:09:50;;;;;;;;;;;9.20;99.90;;;;;;4951015;29;19910;-85
2022/10/31 01:12:15;;;;;;;;;;;9.20;99.90;;;;;;4950842;29;19914;-85
2022/10/31 01:14:44;;;;;;;;;;;9.20;99.90;;;;;;4950665;29;20281;-85
2022/10/31 01:17:10;;;;;;;;;;;9.30;99.90;;;;;;4951017;28;20002;-84
2022/10/31 01:19:35;;;;;;;;;;;9.30;99.90;;;;;;4948766;28;19934;-84
2022/10/31 01:22:01;;;;;;;;;;;9.20;99.90;;;;;;4950626;29;20460;-85
2022/10/31 01:24:26;;;;;;;;;;;9.20;99.90;;;;;;4951631;29;20326;-85
2022/10/31 01:26:51;;;;;;;;;;;9.10;99.90;;;;;;4951044;29;19910;-85
2022/10/31 01:29:17;;;;;;;;;;;9.10;99.90;;;;;;4950850;29;19979;-84
2022/10/31 01:31:42;;;;;;;;;;;9.00;99.90;;;;;;4951391;29;19965;-84
2022/10/31 01:34:11;;;;;;;;;;;9.00;99.90;;;;;;4949820;29;20285;-85
2022/10/31 01:36:37;;;;;;;;;;;9.00;99.90;;;;;;4949930;28;19915;-85
2022/10/31 01:39:10;;;;;;;;;;;9.10;99.90;;;;;;4950390;28;20384;-85
2022/10/31 01:41:36;;;;;;;;;;;9.00;99.90;;;;;;4950530;28;19957;-84
2022/10/31 01:44:22;;;;;;;;;;;9.10;99.90;;;;;;4950627;28;20365;-85
2022/10/31 01:46:59;;;;;;;;;;;9.10;99.90;;;;;;4942869;29;20021;-85
2022/10/31 01:49:31;;;;;;;;;;;9.10;99.90;;;;;;4950373;28;19926;-84
2022/10/31 01:52:09;;;;;;;;;;;9.10;99.90;;;;;;4939999;29;20404;-84
2022/10/31 01:54:37;;;;;;;;;;;9.00;99.90;;;;;;4950413;28;19910;-85
2022/10/31 01:57:03;;;;;;;;;;;9.10;99.90;;;;;;4949381;28;19916;-85
2022/10/31 01:59:30;;;;;;;;;;;9.00;99.90;;;;;;4949382;28;19914;-84
2022/10/31 02:01:55;;;;;;;;;;;9.00;99.90;;;;;;4950334;28;19965;-84
2022/10/31 02:04:22;;;;;;;;;;;8.90;99.90;;;;;;4949625;28;20333;-84
2022/10/31 02:06:50;;;;;;;;;;;8.90;99.90;;;;;;4947565;28;19907;-85
2022/10/31 02:09:16;;;;;;;;;;;8.90;99.90;;;;;;4949826;29;19910;-85
2022/10/31 02:11:42;;;;;;;;;;;8.90;99.90;;;;;;4950304;28;19918;-84
2022/10/31 02:14:08;;;;;;;;;;;8.80;99.90;;;;;;4949046;28;20284;-85
2022/10/31 02:16:33;;;;;;;;;;;8.90;99.90;;;;;;4950093;28;19910;-84
2022/10/31 02:18:59;;;;;;;;;;;8.90;99.90;;;;;;4950739;29;19911;-84
2022/10/31 02:21:36;;;;;;;;;;;8.90;99.90;;;;;;4950962;29;19918;-85
2022/10/31 02:24:24;;;;;;;;;;;8.90;99.90;;;;;;4949191;28;19920;-85
2022/10/31 02:27:03;;;;;;;;;;;8.90;99.90;;;;;;4950128;28;20005;-84
2022/10/31 02:29:45;;;;;;;;;;;8.90;99.90;;;;;;4950417;28;20329;-85
2022/10/31 02:32:16;;;;;;;;;;;8.90;99.90;;;;;;4950956;28;19922;-85
2022/10/31 02:34:41;;;;;;;;;;;8.80;99.90;;;;;;4949081;29;19914;-84
2022/10/31 02:37:13;;;;;;;;;;;8.80;99.90;;;;;;4950294;28;19918;-85
2022/10/31 02:39:58;;;;;;;;;;;8.80;99.90;;;;;;4949459;28;20013;-84
2022/10/31 02:42:28;;;;;;;;;;;8.80;99.90;;;;;;4949867;28;19918;-84
2022/10/31 02:45:00;;;;;;;;;;;8.80;99.90;;;;;;4948844;28;20009;-84
2022/10/31 02:47:27;;;;;;;;;;;8.70;99.90;;;;;;4950372;28;19913;-85
2022/10/31 02:50:04;;;;;;;;;;;8.70;99.90;;;;;;4949512;29;20262;-84
2022/10/31 02:52:31;;;;;;;;;;;8.70;99.90;;;;;;4949006;28;19910;-85
2022/10/31 02:54:57;;;;;;;;;;;8.70;99.90;;;;;;4948375;29;19918;-85
2022/10/31 02:57:24;;;;;;;;;;;8.60;99.90;;;;;;4949768;28;19910;-85
2022/10/31 02:59:52;;;;;;;;;;;8.60;99.90;;;;;;4949908;28;20079;-84
2022/10/31 03:02:21;;;;;;;;;;;8.70;99.90;;;;;;4950393;28;19977;-84
2022/10/31 03:04:46;;;;;;;;;;;8.60;99.90;;;;;;4949438;29;20365;-84
2022/10/31 03:07:19;;;;;;;;;;;8.60;99.90;;;;;;4949248;28;20000;-85
2022/10/31 03:10:07;;;;;;;;;;;8.60;99.90;;;;;;4949136;28;19915;-87
2022/10/31 03:12:45;;;;;;;;;;;8.60;99.90;;;;;;4937138;29;19915;-86
2022/10/31 03:15:13;;;;;;;;;;;8.60;99.90;;;;;;4949346;28;19951;-86
2022/10/31 03:17:55;;;;;;;;;;;8.70;99.90;;;;;;4949019;29;20426;-86
2022/10/31 03:20:24;;;;;;;;;;;8.80;99.90;;;;;;4948806;28;19918;-86
2022/10/31 03:22:50;;;;;;;;;;;8.80;99.90;;;;;;4949793;28;19914;-86
2022/10/31 03:25:16;;;;;;;;;;;9.10;99.90;;;;;;4948985;28;19930;-85
2022/10/31 03:27:42;;;;;;;;;;;9.50;99.90;;;;;;4949386;28;19958;-87
2022/10/31 03:30:08;;;;;;;;;;;9.60;99.90;;;;;;4949671;28;20013;-87
2022/10/31 03:32:36;;;;;;;;;;;9.80;99.90;;;;;;4949454;28;20332;-86
2022/10/31 03:35:02;;;;;;;;;;;9.90;99.90;;;;;;4947074;28;19914;-86
2022/10/31 03:37:29;;;;;;;;;;;9.90;99.90;;;;;;4949058;28;19985;-86
2022/10/31 03:39:56;;;;;;;;;;;9.70;99.90;;;;;;4949179;28;19949;-87
2022/10/31 03:42:23;;;;;;;;;;;9.70;99.90;;;;;;4949226;28;19930;-87
2022/10/31 03:44:53;;;;;;;;;;;10.00;99.90;;;;;;4948025;28;20263;-87
2022/10/31 03:47:18;;;;;;;;;;;10.30;99.90;;;;;;4945628;29;20405;-85
2022/10/31 03:49:44;;;;;;;;;;;10.30;99.90;;;;;;4949597;28;19922;-86
2022/10/31 03:52:15;;;;;;;;;;;10.50;99.90;;;;;;4949650;29;19911;-86
2022/10/31 03:54:45;;;;;;;;;;;10.50;99.90;;;;;;4948671;29;19911;-87
2022/10/31 03:57:22;;;;;;;;;;;10.50;99.90;;;;;;4949659;28;19910;-87
2022/10/31 03:59:51;;;;;;;;;;;10.50;99.90;;;;;;4948785;29;20021;-87
2022/10/31 04:02:18;;;;;;;;;;;10.50;99.90;;;;;;4950150;28;19924;-86
2022/10/31 04:04:44;;;;;;;;;;;10.40;99.90;;;;;;4952907;28;19938;-86
2022/10/31 04:07:10;;;;;;;;;;;10.20;99.90;;;;;;4949465;28;19911;-87
2022/10/31 04:09:36;;;;;;;;;;;10.00;99.90;;;;;;4952567;28;19917;-87
2022/10/31 04:12:03;;;;;;;;;;;10.10;99.90;;;;;;4950256;28;19957;-88
2022/10/31 04:14:30;;;;;;;;;;;10.20;99.90;;;;;;4941635;29;19910;-87
2022/10/31 04:16:56;;;;;;;;;;;10.10;99.90;;;;;;4950530;28;19956;-87
2022/10/31 04:19:21;;;;;;;;;;;10.20;99.90;;;;;;4953498;29;19946;-87
2022/10/31 04:21:47;;;;;;;;;;;10.10;99.90;;;;;;4952023;29;20451;-87
2022/10/31 04:24:12;;;;;;;;;;;9.90;99.90;;;;;;4953087;29;19910;-82
2022/10/31 04:26:38;;;;;;;;;;;9.80;99.90;;;;;;4951955;29;20297;-91
2022/10/31 04:29:03;;;;;;;;;;;9.80;99.90;;;;;;4951530;29;19914;-79
2022/10/31 04:31:29;;;;;;;;;;;9.80;99.90;;;;;;4949954;29;20375;-83
2022/10/31 04:33:54;;;;;;;;;;;9.60;99.90;;;;;;4950806;28;19917;-82
2022/10/31 04:36:20;;;;;;;;;;;9.50;99.90;;;;;;4946993;29;19914;-81
2022/10/31 04:38:45;;;;;;;;;;;9.40;99.90;;;;;;4945591;29;19957;-83
2022/10/31 04:41:11;;;;;;;;;;;9.30;99.90;;;;;;4951682;29;19918;-86
2022/10/31 04:43:36;;;;;;;;;;;9.20;99.90;;;;;;4950233;28;19903;-84
2022/10/31 04:46:02;;;;;;;;;;;9.10;99.90;;;;;;4951744;29;19910;-85
2022/10/31 04:48:27;;;;;;;;;;;9.10;99.90;;;;;;4951912;28;19914;-85
2022/10/31 04:50:53;;;;;;;;;;;9.00;99.90;;;;;;4951900;29;19906;-84
2022/10/31 04:53:18;;;;;;;;;;;9.00;99.90;;;;;;4951567;29;19917;-85
2022/10/31 04:55:43;;;;;;;;;;;9.00;99.90;;;;;;4952072;29;19922;-85
2022/10/31 04:58:09;;;;;;;;;;;9.00;99.90;;;;;;4951353;29;20368;-85
2022/10/31 05:00:34;;;;;;;;;;;8.90;99.90;;;;;;4951531;29;19914;-85
2022/10/31 05:03:00;;;;;;;;;;;8.90;99.90;;;;;;4951613;29;19907;-84
2022/10/31 05:05:26;;;;;;;;;;;8.90;99.90;;;;;;4951364;29;19914;-84
2022/10/31 05:07:52;;;;;;;;;;;8.80;99.90;;;;;;4951479;28;19997;-85
2022/10/31 05:10:19;;;;;;;;;;;8.70;99.90;;;;;;4951113;28;19993;-84
2022/10/31 05:12:47;;;;;;;;;;;8.70;99.90;;;;;;4950905;28;19972;-85
2022/10/31 05:15:13;;;;;;;;;;;8.70;99.90;;;;;;4950577;28;20377;-84
2022/10/31 05:17:38;;;;;;;;;;;8.80;99.90;;;;;;4951266;29;19906;-85
2022/10/31 05:20:04;;;;;;;;;;;8.80;99.90;;;;;;4950930;29;19957;-84
2022/10/31 05:22:29;;;;;;;;;;;8.80;99.90;;;;;;4951217;29;19913;-84
2022/10/31 05:24:54;;;;;;;;;;;8.80;99.90;;;;;;4951026;29;19911;-84
2022/10/31 05:27:20;;;;;;;;;;;8.70;99.90;;;;;;4951017;29;20001;-84
2022/10/31 05:29:46;;;;;;;;;;;8.70;99.90;;;;;;4950779;28;19953;-85
2022/10/31 05:32:11;;;;;;;;;;;8.70;99.90;;;;;;4951287;29;20013;-84
2022/10/31 05:34:37;;;;;;;;;;;8.70;99.90;;;;;;4951117;29;20031;-85
2022/10/31 05:37:02;;;;;;;;;;;8.80;99.90;;;;;;4951102;29;19945;-84
2022/10/31 05:39:27;;;;;;;;;;;8.80;99.90;;;;;;4951274;29;20498;-85
2022/10/31 05:41:56;;;;;;;;;;;8.80;99.90;;;;;;4950956;29;19907;-84
2022/10/31 05:44:21;;;;;;;;;;;8.80;99.90;;;;;;4951332;28;19997;-84
2022/10/31 05:46:47;;;;;;;;;;;8.70;99.90;;;;;;4950869;29;20442;-84
2022/10/31 05:49:12;;;;;;;;;;;8.60;99.90;;;;;;4950466;29;19907;-84
2022/10/31 05:51:38;;;;;;;;;;;8.70;99.90;;;;;;4950879;29;19913;-84
2022/10/31 05:54:03;;;;;;;;;;;8.60;99.90;;;;;;4950610;29;19907;-84
2022/10/31 05:56:29;;;;;;;;;;;8.60;99.90;;;;;;4950807;29;19907;-84
2022/10/31 05:58:54;;;;;;;;;;;8.60;99.90;;;;;;4950521;29;19965;-84
2022/10/31 06:01:19;;;;;;;;;;;8.70;99.90;;;;;;4950373;29;19906;-84
2022/10/31 06:03:45;;;;;;;;;;;8.70;99.90;;;;;;4950398;29;19906;-84
2022/10/31 06:06:10;;;;;;;;;;;8.70;99.90;;;;;;4950275;29;19918;-84
2022/10/31 06:08:36;;;;;;;;;;;8.80;99.90;;;;;;4950340;29;19910;-84
2022/10/31 06:11:01;;;;;;;;;;;8.80;99.90;;;;;;4950323;28;19948;-84
2022/10/31 06:13:27;;;;;;;;;;;8.80;99.90;;;;;;4950081;29;19906;-84
2022/10/31 06:15:52;;;;;;;;;;;8.90;99.90;;;;;;4950532;29;20009;-84
2022/10/31 06:18:17;;;;;;;;;;;8.80;99.90;;;;;;4950253;29;19914;-84
2022/10/31 06:20:43;;;;;;;;;;;8.80;99.90;;;;;;4950428;29;19929;-84
2022/10/31 06:23:08;;;;;;;;;;;8.90;99.90;;;;;;4949888;29;19953;-84
2022/10/31 06:25:34;;;;;;;;;;;8.90;99.90;;;;;;4949966;28;19906;-84
2022/10/31 06:28:00;;;;;;;;;;;9.10;99.90;;;;;;4950165;28;19913;-84
2022/10/31 06:30:25;;;;;;;;;;;9.10;99.90;;;;;;4949594;29;19961;-85
2022/10/31 06:32:50;;;;;;;;;;;9.10;99.90;;;;;;4950181;29;19910;-85
2022/10/31 06:35:16;;;;;;;;;;;9.10;99.90;;;;;;4949969;28;19911;-84
2022/10/31 06:37:42;;;;;;;;;;;9.10;99.90;;;;;;4949800;28;19937;-84
2022/10/31 06:40:07;;;;;;;;;;;9.20;99.90;;;;;;4949878;29;19910;-84
2022/10/31 06:42:34;;;;;;;;;;;9.30;99.90;;;;;;4950030;28;19926;-84
2022/10/31 06:44:59;;;;;;;;;;;9.40;99.90;;;;;;4949966;29;19914;-84
2022/10/31 06:47:24;;;;;;;;;;;9.40;99.90;;;;;;4949749;29;19907;-83
2022/10/31 06:49:50;;;;;;;;;;;9.50;99.90;;;;;;4950005;29;20262;-85
2022/10/31 06:52:15;;;;;;;;;;;9.60;99.90;;;;;;4949898;29;19911;-86
2022/10/31 06:54:41;;;;;;;;;;;9.70;99.90;;;;;;4950058;29;19911;-84
2022/10/31 06:57:06;;;;;;;;;;;9.90;99.90;;;;;;4949563;29;19917;-85
2022/10/31 06:59:32;;;;;;;;;;;9.90;99.90;;;;;;4949683;29;19917;-85
2022/10/31 07:01:57;;;;;;;;;;;10.30;99.90;;;;;;4949719;29;19954;-85
2022/10/31 07:04:24;;;;;;;;;;;10.60;99.90;;;;;;4949556;28;19906;-85
2022/10/31 07:06:52;;;;;;;;;;;11.00;99.90;;;;;;4949669;28;19956;-84
2022/10/31 07:09:18;;;;;;;;;;;11.30;99.90;;;;;;4949423;28;19929;-84
2022/10/31 07:11:43;;;;;;;;;;;11.60;99.90;;;;;;4949673;28;20379;-86
2022/10/31 07:14:09;;;;;;;;;;;11.80;99.90;;;;;;4949255;29;19907;-86
2022/10/31 07:16:34;;;;;;;;;;;12.10;99.90;;;;;;4949772;29;19911;-84
2022/10/31 07:18:59;;;;;;;;;;;12.20;99.90;;;;;;4949550;29;19946;-85
2022/10/31 07:21:25;;;;;;;;;;;12.30;99.90;;;;;;4949314;29;20018;-86
2022/10/31 07:23:50;;;;;;;;;;;12.40;99.90;;;;;;4949917;29;19962;-85
2022/10/31 07:26:16;;;;;;;;;;;12.50;99.90;;;;;;4949592;29;19962;-85
2022/10/31 07:28:41;;;;;;;;;;;12.60;99.90;;;;;;4949720;29;19912;-86
2022/10/31 07:31:06;;;;;;;;;;;12.60;99.90;;;;;;4949358;29;19918;-85
2022/10/31 07:33:32;;;;;;;;;;;12.60;99.90;;;;;;4949372;29;20456;-84
2022/10/31 07:35:57;;;;;;;;;;;12.70;99.90;;;;;;4949365;28;19960;-84
2022/10/31 07:38:23;;;;;;;;;;;12.70;99.90;;;;;;4952394;29;19914;-84
2022/10/31 07:40:52;;;;;;;;;;;12.80;99.90;;;;;;4953255;29;19917;-84
2022/10/31 07:43:18;;;;;;;;;;;12.80;99.90;;;;;;4952896;28;19914;-85
2022/10/31 07:45:43;;;;;;;;;;;12.80;99.90;;;;;;4953002;29;19907;-85
2022/10/31 07:48:08;;;;;;;;;;;12.80;99.90;;;;;;4952916;29;20000;-84
2022/10/31 07:50:34;;;;;;;;;;;12.90;99.90;;;;;;4953035;29;19912;-85
2022/10/31 07:53:00;;;;;;;;;;;12.80;99.90;;;;;;4953002;28;20285;-85
2022/10/31 07:55:26;;;;;;;;;;;12.80;99.90;;;;;;4952887;28;19989;-85
2022/10/31 07:57:58;;;;;;;;;;;12.70;99.90;;;;;;4952517;28;20338;-85
2022/10/31 08:00:24;;;;;;;;;;;12.80;99.90;;;;;;4952562;28;20032;-85
2022/10/31 08:03:00;;;;;;;;;;;12.80;99.90;;;;;;4952833;28;19989;-85
2022/10/31 08:05:25;;;;;;;;;;;12.90;99.90;;;;;;4952505;28;19968;-84
2022/10/31 08:07:51;;;;;;;;;;;12.90;99.90;;;;;;4953342;29;19997;-85
2022/10/31 08:10:16;;;;;;;;;;;13.00;99.90;;;;;;4952281;29;20012;-84
2022/10/31 08:12:41;;;;;;;;;;;12.90;99.90;;;;;;4952545;29;19950;-84
2022/10/31 08:15:07;;;;;;;;;;;12.90;99.90;;;;;;4952208;29;19997;-84
2022/10/31 08:17:36;;;;;;;;;;;12.90;99.90;;;;;;4952404;28;19997;-85
2022/10/31 08:20:02;;;;;;;;;;;12.90;99.90;;;;;;4952404;28;19910;-84
2022/10/31 08:22:27;;;;;;;;;;;12.90;99.90;;;;;;4952019;28;19906;-85
2022/10/31 08:24:53;;;;;;;;;;;12.90;99.90;;;;;;4952284;29;19906;-84
2022/10/31 08:27:18;;;;;;;;;;;12.90;99.90;;;;;;4952292;29;19914;-85
2022/10/31 08:29:44;;;;;;;;;;;12.90;99.90;;;;;;4952138;29;19910;-84
2022/10/31 08:32:09;;;;;;;;;;;12.90;99.90;;;;;;4952441;29;20012;-84
2022/10/31 08:34:34;;;;;;;;;;;12.90;99.90;;;;;;4952268;29;19906;-85
2022/10/31 08:37:00;;;;;;;;;;;12.90;99.90;;;;;;4952094;29;20219;-84
2022/10/31 08:39:25;;;;;;;;;;;12.90;99.90;;;;;;4951600;29;20388;-84
2022/10/31 08:41:50;;;;;;;;;;;12.90;99.90;;;;;;4952285;29;19922;-82
2022/10/31 08:44:16;;;;;;;;;;;13.00;99.90;;;;;;4952056;29;19914;-84
2022/10/31 08:46:41;;;;;;;;;;;13.00;99.90;;;;;;4952301;29;19910;-84
2022/10/31 08:49:07;;;;;;;;;;;13.20;99.90;;;;;;4950521;28;19906;-84
2022/10/31 08:51:32;;;;;;;;;;;13.40;99.90;;;;;;4951876;29;19914;-84
2022/10/31 08:53:58;;;;;;;;;;;13.50;99.90;;;;;;4951823;29;19929;-84
2022/10/31 08:56:23;;;;;;;;;;;13.70;99.90;;;;;;4951809;29;20357;-85
2022/10/31 08:58:49;;;;;;;;;;;13.70;99.90;;;;;;4951743;29;19910;-85
2022/10/31 09:01:14;;;;;;;;;;;13.70;99.90;;;;;;4951522;28;20289;-85
2022/10/31 09:03:40;;;;;;;;;;;13.80;99.90;;;;;;4951741;29;19906;-84
2022/10/31 09:06:08;;;;;;;;;;;14.00;99.90;;;;;;4951394;29;19962;-84
2022/10/31 09:08:34;;;;;;;;;;;14.00;99.90;;;;;;4951610;28;19973;-84
2022/10/31 09:11:01;;;;;;;;;;;14.20;99.90;;;;;;4951512;28;19911;-85
2022/10/31 09:13:26;;;;;;;;;;;14.30;99.90;;;;;;4951067;28;19933;-84
2022/10/31 09:15:52;;;;;;;;;;;14.30;99.90;;;;;;4951550;29;19910;-88
2022/10/31 09:18:19;;;;;;;;;;;14.40;99.90;;;;;;4951495;28;20480;-85
2022/10/31 09:20:45;;;;;;;;;;;14.30;99.90;;;;;;4951299;28;19950;-84
2022/10/31 09:23:12;;;;;;;;;;;14.30;99.90;;;;;;4951637;28;19914;-84
2022/10/31 09:25:37;;;;;;;;;;;14.30;99.90;;;;;;4951400;28;20273;-84
2022/10/31 09:28:04;;;;;;;;;;;14.30;99.90;;;;;;4951071;28;20289;-84
2022/10/31 09:30:31;;;;;;;;;;;14.50;99.90;;;;;;4950693;28;19933;-84
2022/10/31 09:32:58;;;;;;;;;;;14.60;99.90;;;;;;4951203;28;19910;-84
2022/10/31 09:35:23;;;;;;;;;;;14.70;99.90;;;;;;4951038;28;19906;-84
2022/10/31 09:37:59;;;;;;;;;;;15.00;99.90;;;;;;4951120;29;19914;-85
2022/10/31 09:40:27;;;;;;;;;;;15.10;99.90;;;;;;4950829;28;19911;-85
2022/10/31 09:42:52;;;;;;;;;;;15.00;99.90;;;;;;4950961;28;20330;-84
2022/10/31 09:45:18;;;;;;;;;;;15.20;99.90;;;;;;4950945;29;19997;-84
2022/10/31 09:47:57;;;;;;;;;;;15.10;99.90;;;;;;4950918;29;19914;-84
2022/10/31 09:50:26;;;;;;;;;;;15.40;99.90;;;;;;4950559;28;20289;-84
2022/10/31 09:53:01;;;;;;;;;;;15.50;99.90;;;;;;4951002;28;19929;-84
2022/10/31 09:55:31;;;;;;;;;;;15.70;99.90;;;;;;4950383;28;20369;-84
2022/10/31 09:57:58;;;;;;;;;;;15.80;99.90;;;;;;4950619;28;20326;-85
2022/10/31 10:00:23;;;;;;;;;;;16.00;99.90;;;;;;4950189;28;20004;-84
2022/10/31 10:03:07;;;;;;;;;;;16.10;99.90;;;;;;4950764;29;20024;-84
2022/10/31 10:05:36;;;;;;;;;;;16.20;99.90;;;;;;4950439;28;19933;-84
2022/10/31 10:08:18;;;;;;;;;;;16.50;99.90;;;;;;4950751;28;19958;-84
2022/10/31 10:10:47;;;;;;;;;;;16.90;99.90;;;;;;4950476;28;20274;-84
2022/10/31 10:13:32;;;;;;;;;;;17.10;99.90;;;;;;4950394;28;20004;-84
2022/10/31 10:16:11;;;;;;;;;;;17.00;99.90;;;;;;4950614;28;19910;-84
2022/10/31 10:18:39;;;;;;;;;;;17.00;99.90;;;;;;4949983;28;20441;-84
2022/10/31 10:21:13;;;;;;;;;;;17.30;99.90;;;;;;4950290;29;19918;-84
2022/10/31 10:23:50;;;;;;;;;;;17.40;99.90;;;;;;4950462;28;19906;-84
2022/10/31 10:26:18;;;;;;;;;;;17.60;99.90;;;;;;4950256;28;19929;-83
2022/10/31 10:28:46;;;;;;;;;;;17.80;99.90;;;;;;4950159;28;20428;-83
2022/10/31 10:31:16;;;;;;;;;;;18.10;99.90;;;;;;4949922;28;19922;-84
2022/10/31 10:33:52;;;;;;;;;;;18.10;99.90;;;;;;4950329;28;19918;-84
2022/10/31 10:36:21;;;;;;;;;;;17.90;99.90;;;;;;4950118;28;19907;-84
2022/10/31 10:38:51;;;;;;;;;;;18.20;99.90;;;;;;4949910;28;19911;-84
2022/10/31 10:41:18;;;;;;;;;;;18.80;99.90;;;;;;4950156;28;19913;-83
2022/10/31 10:43:43;;;;;;;;;;;19.60;99.90;;;;;;4950180;28;19914;-83
2022/10/31 10:49:19;;;;;;;;;;;21.80;99.90;;;;;;4950137;29;20053;-84
2022/10/31 10:51:45;;;;;;;;;;;22.30;97.90;;;;;;4950088;28;19942;-85
2022/10/31 10:54:13;;;;;;;;;;;23.40;93.20;;;;;;4949866;28;19914;-84
2022/10/31 10:56:47;;;;;;;;;;;24.00;90.90;;;;;;4950142;28;19911;-85
2022/10/31 10:59:15;;;;;;;;;;;24.20;86.40;;;;;;4949717;28;19911;-84
2022/10/31 11:01:41;;;;;;;;;;;25.80;80.70;;;;;;4949425;28;20309;-84
2022/10/31 11:04:25;;;;;;;;;;;27.40;73.50;;;;;;4949755;28;19906;-84
2022/10/31 11:06:57;;;;;;;;;;;28.10;67.30;;;;;;4949624;28;19914;-84
2022/10/31 11:09:23;;;;;;;;;;;27.50;67.20;;;;;;4937602;29;19906;-84
2022/10/31 11:11:48;;;;;;;;;;;27.30;66.60;;;;;;4950571;28;19913;-83
2022/10/31 11:14:15;;;;;;;;;;;27.80;64.90;;;;;;4953628;28;19914;-83
2022/10/31 11:16:49;;;;;;;;;;;27.90;65.50;;;;;;4953402;28;20009;-84
2022/10/31 11:19:22;;;;;;;;;;;28.40;63.20;;;;;;4953193;28;20293;-84
2022/10/31 11:21:48;;;;;;;;;;;28.40;62.70;;;;;;4953464;28;20016;-84
2022/10/31 11:24:15;;;;;;;;;;;28.20;62.00;;;;;;4953730;28;20080;-85
2022/10/31 11:26:41;;;;;;;;;;;28.70;60.50;;;;;;4953675;28;19956;-83
2022/10/31 11:29:15;;;;;;;;;;;29.90;59.20;;;;;;4953540;28;19961;-84
2022/10/31 11:31:41;;;;;;;;;;;29.70;57.50;;;;;;4953274;28;19970;-85
2022/10/31 11:34:14;;;;;;;;;;;29.30;58.40;;;;;;4953173;28;20365;-85
2022/10/31 11:36:42;;;;;;;;;;;30.20;56.50;;;;;;4953004;28;20369;-84
2022/10/31 11:39:15;;;;;;;;;;;30.30;56.30;;;;;;4953018;28;19966;-84
2022/10/31 11:41:43;;;;;;;;;;;30.50;56.00;;;;;;4953212;28;19952;-83
2022/10/31 11:44:12;;;;;;;;;;;30.20;55.90;;;;;;4953151;28;19906;-87
2022/10/31 11:46:42;;;;;;;;;;;29.40;57.40;;;;;;4953325;28;19910;-84
2022/10/31 11:49:29;;;;;;;;;;;29.90;57.60;;;;;;4952872;28;19913;-84
2022/10/31 11:51:57;;;;;;;;;;;30.90;56.20;;;;;;4953422;28;19906;-85
2022/10/31 11:54:28;;;;;;;;;;;29.10;57.40;;;;;;4952735;28;20366;-85
2022/10/31 11:56:53;;;;;;;;;;;28.40;60.60;;;;;;4953021;28;19941;-85
2022/10/31 11:59:23;;;;;;;;;;;28.80;58.40;;;;;;4952930;29;19946;-84
2022/10/31 12:01:50;;;;;;;;;;;27.10;62.00;;;;;;4952918;28;19906;-83
2022/10/31 12:04:16;;;;;;;;;;;27.70;62.50;;;;;;4952726;28;19910;-85
2022/10/31 12:06:46;;;;;;;;;;;28.50;60.00;;;;;;4952811;28;19917;-87
2022/10/31 12:09:14;;;;;;;;;;;28.00;60.30;;;;;;4952654;28;20281;-85
2022/10/31 12:11:50;;;;;;;;;;;28.10;59.90;;;;;;4952418;29;20381;-86
2022/10/31 12:14:27;;;;;;;;;;;28.10;60.70;;;;;;4953235;28;19912;-84
2022/10/31 12:17:06;;;;;;;;;;;28.70;60.00;;;;;;4952590;28;19913;-90
2022/10/31 12:19:54;;;;;;;;;;;29.30;57.50;;;;;;4942685;29;19936;-85
2022/10/31 12:22:34;;;;;;;;;;;29.20;58.10;;;;;;4933444;29;19994;-82
2022/10/31 12:25:14;;;;;;;;;;;30.80;56.60;;;;;;4933339;29;19906;-85
2022/10/31 12:27:48;;;;;;;;;;;32.00;53.80;;;;;;4933329;29;19915;-84
2022/10/31 12:30:19;;;;;;;;;;;29.60;56.90;;;;;;4932863;29;19918;-84
2022/10/31 12:32:47;;;;;;;;;;;30.20;57.50;;;;;;4932973;29;19966;-85
2022/10/31 12:35:21;;;;;;;;;;;31.20;55.00;;;;;;4933075;29;20367;-85
2022/10/31 12:37:52;;;;;;;;;;;30.00;56.90;;;;;;4932896;29;19907;-85
2022/10/31 12:40:18;;;;;;;;;;;29.80;57.40;;;;;;4932982;29;19911;-86
2022/10/31 12:43:01;;;;;;;;;;;29.90;57.20;;;;;;4932934;29;19985;-85
2022/10/31 12:45:39;;;;;;;;;;;29.60;57.50;;;;;;4933023;29;19907;-85
2022/10/31 12:48:15;;;;;;;;;;;30.20;56.60;;;;;;4932731;29;20379;-86
2022/10/31 12:51:05;;;;;;;;;;;30.70;55.00;;;;;;4933173;29;19906;-86
2022/10/31 12:53:30;;;;;;;;;;;30.10;56.40;;;;;;4932826;29;20390;-85
2022/10/31 12:56:18;;;;;;;;;;;30.30;56.60;;;;;;4933227;29;19918;-86
2022/10/31 12:58:50;;;;;;;;;;;30.50;56.90;;;;;;4932609;29;20211;-85
2022/10/31 13:01:18;;;;;;;;;;;30.70;56.00;;;;;;4939682;29;20005;-85
2022/10/31 13:03:48;;;;;;;;;;;30.80;56.10;;;;;;4951490;28;19961;-85
2022/10/31 13:06:17;;;;;;;;;;;30.40;57.10;;;;;;4951750;28;19958;-85
2022/10/31 13:08:46;;;;;;;;;;;29.90;56.50;;;;;;4952034;28;19911;-86
2022/10/31 13:11:15;;;;;;;;;;;30.10;56.90;;;;;;4951437;28;20255;-85
2022/10/31 13:13:57;;;;;;;;;;;29.90;56.80;;;;;;4951168;28;19906;-85
2022/10/31 13:16:24;;;;;;;;;;;27.60;61.40;;;;;;4951587;28;20351;-86
2022/10/31 13:18:55;;;;;;;;;;;25.00;69.30;;;;;;4951583;28;19973;-85
2022/10/31 13:21:26;;;;;;;;;;;24.10;74.10;;;;;;4951457;28;19906;-84
2022/10/31 13:23:51;;;;;;;;;;;23.80;76.80;;;;;;4951437;28;19910;-85
2022/10/31 13:26:37;;;;;;;;;;;23.50;78.80;;;;;;4951165;28;20049;-84
2022/10/31 13:29:08;;;;;;;;;;;23.20;80.10;;;;;;4950819;29;20362;-84
2022/10/31 13:31:34;;;;;;;;;;;22.80;82.80;;;;;;4950816;28;19918;-85
2022/10/31 13:34:04;;;;;;;;;;;22.80;85.00;;;;;;4950629;28;19907;-85
2022/10/31 13:36:43;;;;;;;;;;;22.90;86.30;;;;;;4950660;28;19952;-85
2022/10/31 13:39:27;;;;;;;;;;;22.70;86.30;;;;;;4950804;28;20277;-84
2022/10/31 13:41:58;;;;;;;;;;;22.80;87.30;;;;;;4950996;28;19950;-84
2022/10/31 13:44:24;;;;;;;;;;;22.90;87.20;;;;;;4950664;28;20349;-85
2022/10/31 13:46:50;;;;;;;;;;;22.60;87.50;;;;;;4951270;28;19906;-85
2022/10/31 13:49:28;;;;;;;;;;;22.40;88.60;;;;;;4950718;28;19917;-85
2022/10/31 13:52:08;;;;;;;;;;;21.70;91.70;;;;;;4951194;29;19906;-84
2022/10/31 13:54:35;;;;;;;;;;;21.50;92.60;;;;;;4950579;29;19952;-85
2022/10/31 13:57:00;;;;;;;;;;;21.40;93.90;;;;;;4950705;28;19913;-85
2022/10/31 13:59:27;;;;;;;;;;;21.20;96.00;;;;;;4950327;28;19910;-85
2022/10/31 14:01:59;;;;;;;;;;;20.70;97.50;;;;;;4950463;28;19913;-85
2022/10/31 14:04:33;;;;;;;;;;;20.80;99.50;;;;;;4950519;28;19910;-84
2022/10/31 14:07:06;;;;;;;;;;;20.70;99.00;;;;;;4950625;29;19961;-85
2022/10/31 14:09:34;;;;;;;;;;;20.30;99.90;;;;;;4950620;28;19947;-84
2022/10/31 14:12:02;;;;;;;;;;;20.10;99.90;;;;;;4950606;28;19916;-84
2022/10/31 14:14:31;;;;;;;;;;;19.80;99.90;;;;;;4950234;28;19911;-84
2022/10/31 14:16:59;;;;;;;;;;;19.80;99.90;;;;;;4950500;28;20050;-84
2022/10/31 14:19:25;;;;;;;;;;;19.50;99.90;;;;;;4950035;28;20003;-84
2022/10/31 14:21:51;;;;;;;;;;;19.20;99.90;;;;;;4950246;28;19911;-85
2022/10/31 14:24:22;;;;;;;;;;;18.90;99.90;;;;;;4950644;29;20265;-84
2022/10/31 14:26:56;;;;;;;;;;;18.60;99.90;;;;;;4949768;29;19997;-84
2022/10/31 14:29:24;;;;;;;;;;;18.30;99.90;;;;;;4950486;29;19933;-86
2022/10/31 14:31:54;;;;;;;;;;;18.00;99.90;;;;;;4950085;28;19980;-84
2022/10/31 14:34:39;;;;;;;;;;;17.90;99.90;;;;;;4950090;28;20377;-85